Time;durP1;ratioP1;P1;durP2;ratioP2;P2;SDS_P1;SDS_P2;PMS_P1;PMS_P2;Temp;Humidity;BMP_temperature;BMP_pressure;BME280_temperature;BME280_humidity;BME280_pressure;Samples;Min_cycle;Max_cycle;Signal;HPM_P1;HPM_P2
2021/07/19 00:00:56;;;;;;;;;;;25.10;56.20;;;;;;5074156;28;19912;-62
2021/07/19 00:03:22;;;;;;;;;;;25.10;56.10;;;;;;5090912;28;20351;-62
2021/07/19 00:05:47;;;;;;;;;;;25.10;56.60;;;;;;5089854;28;19916;-65
2021/07/19 00:08:13;;;;;;;;;;;25.10;56.10;;;;;;5087504;28;19908;-64
2021/07/19 00:10:38;;;;;;;;;;;25.10;56.60;;;;;;5088668;28;20626;-62
2021/07/19 00:13:04;;;;;;;;;;;25.10;56.10;;;;;;5083337;28;19911;-66
2021/07/19 00:15:30;;;;;;;;;;;25.10;56.20;;;;;;5069196;28;19908;-62
2021/07/19 00:17:56;;;;;;;;;;;25.10;56.20;;;;;;5086985;28;19908;-63
2021/07/19 00:20:22;;;;;;;;;;;25.10;56.10;;;;;;5088002;28;20309;-63
2021/07/19 00:22:48;;;;;;;;;;;25.10;56.10;;;;;;5088208;28;19919;-63
2021/07/19 00:25:15;;;;;;;;;;;25.10;56.10;;;;;;5089721;28;19915;-63
2021/07/19 00:27:41;;;;;;;;;;;25.10;56.20;;;;;;5085777;28;20323;-64
2021/07/19 00:30:09;;;;;;;;;;;25.10;56.20;;;;;;5087776;28;19915;-63
2021/07/19 00:32:35;;;;;;;;;;;25.10;56.60;;;;;;5088234;28;20009;-62
2021/07/19 00:35:01;;;;;;;;;;;25.10;56.10;;;;;;5089252;28;19937;-66
2021/07/19 00:37:26;;;;;;;;;;;25.10;56.20;;;;;;5085178;28;20030;-62
2021/07/19 00:39:52;;;;;;;;;;;25.10;56.10;;;;;;5085157;28;19986;-65
2021/07/19 00:42:17;;;;;;;;;;;25.10;56.20;;;;;;5084676;28;20006;-63
2021/07/19 00:44:43;;;;;;;;;;;25.10;56.20;;;;;;5065581;28;19904;-63
2021/07/19 00:47:10;;;;;;;;;;;25.10;56.20;;;;;;5072941;28;20502;-62
2021/07/19 00:49:36;;;;;;;;;;;25.10;56.20;;;;;;5061569;28;19998;-62
2021/07/19 00:52:02;;;;;;;;;;;25.10;56.20;;;;;;5086654;28;20054;-62
2021/07/19 00:54:28;;;;;;;;;;;25.00;56.10;;;;;;5086790;28;20371;-62
2021/07/19 00:56:55;;;;;;;;;;;25.00;56.10;;;;;;5068024;28;19908;-62
2021/07/19 00:59:24;;;;;;;;;;;25.10;56.20;;;;;;5075917;28;19916;-66
2021/07/19 01:01:52;;;;;;;;;;;25.00;56.10;;;;;;5087215;28;19912;-62
2021/07/19 01:04:18;;;;;;;;;;;25.00;56.10;;;;;;5087262;28;19947;-63
2021/07/19 01:06:44;;;;;;;;;;;25.00;56.10;;;;;;5086258;28;19904;-64
2021/07/19 01:09:09;;;;;;;;;;;25.00;56.10;;;;;;5076741;28;19923;-62
2021/07/19 01:11:35;;;;;;;;;;;25.00;56.10;;;;;;5086501;28;20327;-63
2021/07/19 01:14:01;;;;;;;;;;;25.00;56.10;;;;;;5086924;28;20077;-63
2021/07/19 01:16:26;;;;;;;;;;;25.00;56.10;;;;;;5085198;28;19912;-64
2021/07/19 01:18:52;;;;;;;;;;;25.00;56.10;;;;;;5079315;28;19908;-63
2021/07/19 01:21:56;;;;;;;;;;;25.00;56.10;;;;;;5086474;28;19911;-64
2021/07/19 01:24:28;;;;;;;;;;;25.00;56.10;;;;;;4987798;28;19924;-66
2021/07/19 01:26:59;;;;;;;;;;;25.00;56.10;;;;;;5002720;28;19952;-65
2021/07/19 01:29:25;;;;;;;;;;;25.00;56.10;;;;;;5045038;28;19923;-63
2021/07/19 01:31:52;;;;;;;;;;;25.00;56.10;;;;;;5085263;28;19998;-63
2021/07/19 01:34:22;;;;;;;;;;;25.00;56.20;;;;;;5087730;28;20399;-61
2021/07/19 01:36:49;;;;;;;;;;;25.00;56.10;;;;;;5064442;28;19908;-63
2021/07/19 01:39:15;;;;;;;;;;;25.00;56.20;;;;;;5084933;28;19964;-64
2021/07/19 01:41:40;;;;;;;;;;;25.00;56.20;;;;;;5086079;28;20261;-63
2021/07/19 01:44:06;;;;;;;;;;;25.00;56.20;;;;;;5087572;28;20240;-62
2021/07/19 01:46:33;;;;;;;;;;;25.00;56.20;;;;;;5068228;28;19979;-63
2021/07/19 01:48:59;;;;;;;;;;;25.00;56.20;;;;;;5086487;28;19912;-63
2021/07/19 01:51:25;;;;;;;;;;;25.00;56.20;;;;;;5084976;28;20683;-65
2021/07/19 01:53:51;;;;;;;;;;;25.00;56.20;;;;;;5084143;28;20004;-63
2021/07/19 01:56:17;;;;;;;;;;;24.90;56.10;;;;;;5063412;28;19911;-63
2021/07/19 01:58:43;;;;;;;;;;;25.00;56.20;;;;;;5083091;28;19908;-62
2021/07/19 02:01:09;;;;;;;;;;;25.00;56.20;;;;;;5066358;28;19923;-62
2021/07/19 02:03:36;;;;;;;;;;;25.00;56.20;;;;;;5066538;28;19912;-64
2021/07/19 02:06:03;;;;;;;;;;;24.90;56.10;;;;;;5085151;28;19923;-62
2021/07/19 02:08:29;;;;;;;;;;;24.90;56.10;;;;;;5082108;28;20247;-62
2021/07/19 02:10:55;;;;;;;;;;;25.00;56.20;;;;;;5063535;28;19916;-63
2021/07/19 02:13:21;;;;;;;;;;;24.90;56.20;;;;;;5084223;28;20041;-63
2021/07/19 02:15:48;;;;;;;;;;;24.90;56.10;;;;;;5084095;28;19908;-62
2021/07/19 02:18:15;;;;;;;;;;;25.00;56.20;;;;;;5084753;28;20526;-62
2021/07/19 02:20:43;;;;;;;;;;;24.90;56.10;;;;;;5084802;28;20047;-63
2021/07/19 02:23:09;;;;;;;;;;;24.90;56.10;;;;;;5083533;28;20444;-63
2021/07/19 02:25:35;;;;;;;;;;;25.00;56.10;;;;;;5061213;28;19908;-63
2021/07/19 02:28:01;;;;;;;;;;;24.90;56.10;;;;;;5072173;28;20419;-63
2021/07/19 02:30:27;;;;;;;;;;;25.00;56.20;;;;;;5083562;28;19998;-64
2021/07/19 02:32:55;;;;;;;;;;;24.90;56.10;;;;;;5081733;28;20370;-63
2021/07/19 02:35:22;;;;;;;;;;;24.90;56.10;;;;;;5084231;28;19990;-63
2021/07/19 02:37:49;;;;;;;;;;;24.90;56.20;;;;;;5072451;28;19923;-65
2021/07/19 02:40:17;;;;;;;;;;;24.90;56.10;;;;;;5080784;28;20367;-61
2021/07/19 02:42:44;;;;;;;;;;;24.90;56.10;;;;;;5080772;28;20053;-63
2021/07/19 02:45:11;;;;;;;;;;;24.90;56.10;;;;;;5079061;28;19912;-63
2021/07/19 02:47:37;;;;;;;;;;;24.90;56.10;;;;;;5073389;28;20032;-62
2021/07/19 02:50:04;;;;;;;;;;;24.90;56.20;;;;;;5088414;28;20504;-62
2021/07/19 02:52:29;;;;;;;;;;;24.90;56.10;;;;;;5089758;28;19923;-62
2021/07/19 02:54:55;;;;;;;;;;;24.90;56.10;;;;;;5088358;28;19912;-62
2021/07/19 02:57:21;;;;;;;;;;;24.90;56.10;;;;;;5097980;28;19911;-62
2021/07/19 02:59:46;;;;;;;;;;;24.90;56.10;;;;;;5089482;28;19904;-60
2021/07/19 03:02:13;;;;;;;;;;;24.90;56.10;;;;;;5089652;28;19995;-61
2021/07/19 03:04:40;;;;;;;;;;;24.90;56.20;;;;;;5088701;28;19997;-62
2021/07/19 03:07:06;;;;;;;;;;;24.90;56.10;;;;;;5089132;28;19911;-63
2021/07/19 03:09:32;;;;;;;;;;;24.90;56.20;;;;;;5087345;28;20002;-63
2021/07/19 03:12:00;;;;;;;;;;;24.90;56.20;;;;;;5087542;28;20029;-63
2021/07/19 03:14:26;;;;;;;;;;;24.90;56.20;;;;;;5078296;28;19938;-60
2021/07/19 03:16:52;;;;;;;;;;;24.90;56.20;;;;;;5089153;28;20394;-62
2021/07/19 03:19:20;;;;;;;;;;;24.80;56.10;;;;;;5084123;28;19912;-63
2021/07/19 03:21:46;;;;;;;;;;;24.80;56.10;;;;;;5086054;28;20192;-61
2021/07/19 03:24:13;;;;;;;;;;;24.80;56.10;;;;;;5090299;28;19916;-61
2021/07/19 03:26:40;;;;;;;;;;;24.90;56.10;;;;;;5085412;28;19983;-63
2021/07/19 03:29:07;;;;;;;;;;;24.80;56.10;;;;;;5083226;28;19989;-66
2021/07/19 03:31:32;;;;;;;;;;;24.80;56.10;;;;;;5086465;28;19961;-63
2021/07/19 03:33:58;;;;;;;;;;;24.80;56.10;;;;;;5085166;28;20340;-65
2021/07/19 03:36:25;;;;;;;;;;;24.80;56.10;;;;;;5087057;28;20002;-61
2021/07/19 03:38:51;;;;;;;;;;;24.80;56.10;;;;;;5080440;28;19912;-64
2021/07/19 03:41:16;;;;;;;;;;;24.80;56.10;;;;;;5075481;28;20458;-62
2021/07/19 03:43:43;;;;;;;;;;;24.80;56.10;;;;;;5086029;28;19939;-62
2021/07/19 03:46:09;;;;;;;;;;;24.80;56.10;;;;;;5076839;28;20287;-60
2021/07/19 03:48:34;;;;;;;;;;;24.80;56.10;;;;;;5086525;28;20010;-63
2021/07/19 03:51:00;;;;;;;;;;;24.80;56.10;;;;;;5066501;28;20025;-62
2021/07/19 03:53:26;;;;;;;;;;;24.80;56.10;;;;;;5079063;28;20061;-63
2021/07/19 03:55:51;;;;;;;;;;;24.80;55.90;;;;;;5080722;28;20465;-62
2021/07/19 03:58:17;;;;;;;;;;;24.80;55.20;;;;;;5083639;28;19908;-62
2021/07/19 04:00:43;;;;;;;;;;;24.70;54.50;;;;;;5080233;28;20232;-62
2021/07/19 04:04:16;;;;;;;;;;;24.60;54.20;;;;;;5070138;28;19908;-63
2021/07/19 04:06:05;;;;;;;;;;;24.60;54.30;;;;;;5069658;28;20364;-62
2021/07/19 04:08:34;;;;;;;;;;;24.40;54.60;;;;;;5075399;28;19912;-62
2021/07/19 04:11:00;;;;;;;;;;;24.40;54.70;;;;;;5082402;28;19939;-62
2021/07/19 04:13:26;;;;;;;;;;;24.40;54.90;;;;;;5084915;28;19998;-61
2021/07/19 04:15:52;;;;;;;;;;;24.40;55.00;;;;;;5084951;28;19911;-60
2021/07/19 04:18:19;;;;;;;;;;;24.40;55.30;;;;;;5069900;28;20362;-59
2021/07/19 04:20:44;;;;;;;;;;;24.40;55.30;;;;;;5078346;28;19939;-61
2021/07/19 04:23:11;;;;;;;;;;;24.40;55.20;;;;;;5085314;28;20380;-61
2021/07/19 04:25:40;;;;;;;;;;;24.40;54.90;;;;;;5064512;28;20006;-61
2021/07/19 04:28:06;;;;;;;;;;;24.40;55.00;;;;;;5084771;28;20270;-63
2021/07/19 04:30:33;;;;;;;;;;;24.40;55.30;;;;;;5085865;28;19920;-62
2021/07/19 04:32:58;;;;;;;;;;;24.50;54.70;;;;;;5075702;28;19907;-61
2021/07/19 04:35:24;;;;;;;;;;;24.40;54.50;;;;;;5077308;28;19935;-62
2021/07/19 04:37:52;;;;;;;;;;;24.40;54.50;;;;;;5063999;28;20293;-60
2021/07/19 04:40:18;;;;;;;;;;;24.40;54.40;;;;;;5085683;28;20256;-63
2021/07/19 04:42:44;;;;;;;;;;;24.40;54.30;;;;;;5087759;28;20429;-60
2021/07/19 04:45:10;;;;;;;;;;;24.30;54.20;;;;;;5069233;28;19908;-60
2021/07/19 04:47:35;;;;;;;;;;;24.40;54.20;;;;;;5086547;28;19920;-62
2021/07/19 04:50:01;;;;;;;;;;;24.30;54.20;;;;;;5082734;28;19915;-62
2021/07/19 04:52:27;;;;;;;;;;;24.30;54.30;;;;;;5086921;28;19988;-61
2021/07/19 04:54:53;;;;;;;;;;;24.30;54.30;;;;;;5076426;28;20350;-65
2021/07/19 04:57:19;;;;;;;;;;;24.30;54.40;;;;;;5086480;28;19912;-63
2021/07/19 04:59:48;;;;;;;;;;;24.30;54.50;;;;;;5091282;28;20275;-60
2021/07/19 05:02:14;;;;;;;;;;;24.30;54.60;;;;;;5073765;28;20274;-63
2021/07/19 05:04:41;;;;;;;;;;;24.30;54.50;;;;;;5085688;28;19958;-62
2021/07/19 05:07:07;;;;;;;;;;;24.40;54.50;;;;;;5083275;28;19912;-62
2021/07/19 05:09:35;;;;;;;;;;;24.40;54.50;;;;;;5084418;28;19950;-64
2021/07/19 05:12:01;;;;;;;;;;;24.40;54.70;;;;;;5068085;28;20359;-62
2021/07/19 05:14:26;;;;;;;;;;;24.40;54.70;;;;;;5082663;28;19912;-60
2021/07/19 05:16:53;;;;;;;;;;;24.40;55.00;;;;;;5084637;28;20039;-61
2021/07/19 05:19:18;;;;;;;;;;;24.40;55.10;;;;;;5079204;28;19915;-62
2021/07/19 05:21:44;;;;;;;;;;;24.40;55.30;;;;;;5060672;28;19904;-63
2021/07/19 05:24:10;;;;;;;;;;;24.40;55.60;;;;;;5057845;28;19912;-60
2021/07/19 05:26:35;;;;;;;;;;;24.40;55.60;;;;;;5076890;28;19920;-65
2021/07/19 05:29:01;;;;;;;;;;;24.50;55.50;;;;;;5085624;28;19919;-61
2021/07/19 05:31:27;;;;;;;;;;;24.50;55.50;;;;;;5083914;28;19923;-60
2021/07/19 05:33:53;;;;;;;;;;;24.50;55.40;;;;;;5067279;28;19908;-62
2021/07/19 05:36:19;;;;;;;;;;;24.60;55.30;;;;;;5068666;28;19909;-62
2021/07/19 05:38:44;;;;;;;;;;;24.60;55.20;;;;;;5087676;28;19931;-65
2021/07/19 05:41:10;;;;;;;;;;;24.70;55.10;;;;;;5085981;28;20002;-61
2021/07/19 05:43:36;;;;;;;;;;;24.70;55.00;;;;;;5069119;28;19974;-64
2021/07/19 05:46:02;;;;;;;;;;;24.70;54.90;;;;;;5087786;28;19908;-61
2021/07/19 05:48:27;;;;;;;;;;;24.70;55.00;;;;;;5083045;28;19930;-61
2021/07/19 05:50:53;;;;;;;;;;;24.80;54.90;;;;;;5079834;28;19912;-59
2021/07/19 05:53:19;;;;;;;;;;;24.80;54.80;;;;;;5064141;28;19916;-62
2021/07/19 05:55:44;;;;;;;;;;;24.80;54.80;;;;;;5087852;28;19914;-63
2021/07/19 05:58:10;;;;;;;;;;;24.80;54.70;;;;;;5080371;28;19918;-60
2021/07/19 06:00:35;;;;;;;;;;;24.90;54.70;;;;;;5068602;28;19957;-62
2021/07/19 06:03:01;;;;;;;;;;;24.90;54.70;;;;;;5079205;28;19923;-60
2021/07/19 06:05:26;;;;;;;;;;;24.90;54.70;;;;;;5067297;28;19904;-61
2021/07/19 06:07:52;;;;;;;;;;;24.90;54.70;;;;;;5067679;28;20304;-60
2021/07/19 06:10:18;;;;;;;;;;;25.00;54.70;;;;;;5085377;28;20011;-60
2021/07/19 06:12:43;;;;;;;;;;;25.00;54.60;;;;;;5086248;28;19951;-65
2021/07/19 06:15:10;;;;;;;;;;;25.00;54.60;;;;;;5092098;28;19931;-59
2021/07/19 06:17:39;;;;;;;;;;;25.00;54.50;;;;;;5092668;28;20006;-61
2021/07/19 06:20:12;;;;;;;;;;;25.10;54.60;;;;;;5092270;28;19923;-59
2021/07/19 06:22:37;;;;;;;;;;;25.10;54.60;;;;;;5072616;28;20491;-63
2021/07/19 06:25:04;;;;;;;;;;;25.10;54.50;;;;;;5094104;28;20039;-60
2021/07/19 06:27:30;;;;;;;;;;;25.10;54.50;;;;;;5077397;28;19980;-61
2021/07/19 06:29:55;;;;;;;;;;;25.10;54.50;;;;;;5093276;28;20410;-64
2021/07/19 06:32:21;;;;;;;;;;;25.20;54.50;;;;;;5093358;28;19916;-61
2021/07/19 06:34:46;;;;;;;;;;;25.20;54.50;;;;;;5094055;28;19908;-62
2021/07/19 06:37:12;;;;;;;;;;;25.20;54.50;;;;;;5093667;28;20010;-61
2021/07/19 06:39:37;;;;;;;;;;;25.20;54.70;;;;;;5093594;28;19908;-62
2021/07/19 06:42:03;;;;;;;;;;;25.20;55.40;;;;;;5085607;28;19912;-60
2021/07/19 06:44:28;;;;;;;;;;;25.20;54.90;;;;;;5092505;28;19920;-60
2021/07/19 06:46:56;;;;;;;;;;;25.30;54.80;;;;;;5093185;28;19916;-62
2021/07/19 06:49:23;;;;;;;;;;;25.30;54.80;;;;;;5093571;28;19926;-60
2021/07/19 06:51:49;;;;;;;;;;;25.30;54.80;;;;;;5082443;28;20339;-61
2021/07/19 06:54:15;;;;;;;;;;;25.40;54.60;;;;;;5063444;28;19912;-66
2021/07/19 06:56:49;;;;;;;;;;;25.40;54.70;;;;;;5093609;28;19911;-64
2021/07/19 06:59:16;;;;;;;;;;;25.40;54.60;;;;;;5092263;28;20003;-62
2021/07/19 07:01:42;;;;;;;;;;;25.40;54.60;;;;;;5090801;28;20060;-60
2021/07/19 07:04:07;;;;;;;;;;;25.40;54.50;;;;;;5094297;28;19904;-60
2021/07/19 07:06:33;;;;;;;;;;;25.40;54.40;;;;;;5092705;28;20313;-61
2021/07/19 07:08:59;;;;;;;;;;;25.40;54.40;;;;;;5074433;28;19911;-60
2021/07/19 07:11:27;;;;;;;;;;;25.50;54.40;;;;;;5090346;28;19987;-60
2021/07/19 07:13:52;;;;;;;;;;;25.50;54.30;;;;;;5092478;28;19962;-59
2021/07/19 07:16:18;;;;;;;;;;;25.50;54.30;;;;;;5093379;28;19943;-63
2021/07/19 07:18:43;;;;;;;;;;;25.60;54.30;;;;;;5091421;28;19908;-62
2021/07/19 07:21:09;;;;;;;;;;;25.60;54.40;;;;;;5073711;28;20014;-64
2021/07/19 07:23:34;;;;;;;;;;;25.60;54.30;;;;;;5093466;28;20286;-60
2021/07/19 07:26:03;;;;;;;;;;;25.60;54.30;;;;;;5098132;28;20010;-63
2021/07/19 07:28:29;;;;;;;;;;;25.60;54.40;;;;;;5068359;28;20022;-61
2021/07/19 07:30:55;;;;;;;;;;;25.60;54.40;;;;;;5086853;28;20007;-64
2021/07/19 07:33:20;;;;;;;;;;;25.60;54.40;;;;;;5087815;28;19916;-60
2021/07/19 07:35:46;;;;;;;;;;;25.70;54.40;;;;;;5090168;28;19934;-62
2021/07/19 07:38:12;;;;;;;;;;;25.60;54.60;;;;;;5088209;28;20011;-62
2021/07/19 07:40:38;;;;;;;;;;;25.70;54.60;;;;;;5087631;28;19938;-59
2021/07/19 07:43:03;;;;;;;;;;;25.70;54.50;;;;;;5069445;28;19912;-59
2021/07/19 07:45:29;;;;;;;;;;;25.70;54.40;;;;;;5090614;28;19908;-59
2021/07/19 07:47:54;;;;;;;;;;;25.70;54.40;;;;;;5087781;28;19904;-61
2021/07/19 07:50:20;;;;;;;;;;;25.70;54.40;;;;;;5086028;28;20451;-62
2021/07/19 07:52:45;;;;;;;;;;;25.80;54.50;;;;;;5088140;28;19916;-60
2021/07/19 07:55:11;;;;;;;;;;;25.70;54.20;;;;;;5090651;28;19912;-64
2021/07/19 07:57:36;;;;;;;;;;;25.80;54.30;;;;;;5086201;28;20269;-60
2021/07/19 08:00:07;;;;;;;;;;;25.80;54.20;;;;;;5086564;28;20389;-59
2021/07/19 08:02:33;;;;;;;;;;;25.80;54.20;;;;;;5083576;28;20014;-61
2021/07/19 08:04:58;;;;;;;;;;;25.80;54.20;;;;;;5091311;28;20298;-61
2021/07/19 08:07:24;;;;;;;;;;;25.80;54.20;;;;;;5094927;28;19908;-62
2021/07/19 08:09:50;;;;;;;;;;;25.80;54.10;;;;;;5090862;28;19973;-58
2021/07/19 08:12:15;;;;;;;;;;;25.80;54.00;;;;;;5102861;28;19912;-60
2021/07/19 08:14:41;;;;;;;;;;;25.90;54.20;;;;;;5085578;28;20355;-59
2021/07/19 08:17:06;;;;;;;;;;;25.90;54.20;;;;;;5086654;28;19923;-61
2021/07/19 08:19:34;;;;;;;;;;;25.90;54.10;;;;;;5087588;28;20294;-59
2021/07/19 08:22:00;;;;;;;;;;;25.90;54.10;;;;;;5088588;28;19944;-61
2021/07/19 08:24:25;;;;;;;;;;;25.90;54.10;;;;;;5089267;28;20507;-60
2021/07/19 08:26:54;;;;;;;;;;;25.90;54.10;;;;;;5087027;28;20076;-62
2021/07/19 08:29:20;;;;;;;;;;;25.90;54.00;;;;;;5088049;28;19919;-61
2021/07/19 08:31:45;;;;;;;;;;;26.00;54.10;;;;;;5086460;28;19916;-60
2021/07/19 08:34:11;;;;;;;;;;;26.00;54.00;;;;;;5086391;28;19919;-62
2021/07/19 08:36:37;;;;;;;;;;;26.00;54.00;;;;;;5088851;28;19915;-60
2021/07/19 08:39:05;;;;;;;;;;;26.00;54.00;;;;;;5087472;28;19921;-60
2021/07/19 08:41:31;;;;;;;;;;;26.00;54.00;;;;;;5087083;28;20400;-62
2021/07/19 08:43:57;;;;;;;;;;;26.00;54.00;;;;;;5086569;28;20003;-60
2021/07/19 08:46:22;;;;;;;;;;;26.00;54.00;;;;;;5089476;28;19957;-61
2021/07/19 08:48:52;;;;;;;;;;;26.00;54.00;;;;;;5091948;28;19931;-62
2021/07/19 08:51:18;;;;;;;;;;;26.10;54.00;;;;;;5088074;28;19951;-62
2021/07/19 08:53:43;;;;;;;;;;;26.00;54.20;;;;;;5092415;28;19995;-61
2021/07/19 08:56:09;;;;;;;;;;;26.10;54.40;;;;;;5080669;28;19927;-62
2021/07/19 08:58:35;;;;;;;;;;;26.00;54.30;;;;;;5086639;28;19912;-60
2021/07/19 09:01:02;;;;;;;;;;;26.10;54.20;;;;;;5065800;28;19920;-60
2021/07/19 09:03:28;;;;;;;;;;;26.10;54.20;;;;;;5082800;28;19915;-61
2021/07/19 09:05:53;;;;;;;;;;;26.10;54.40;;;;;;5087626;28;20232;-61
2021/07/19 09:08:19;;;;;;;;;;;26.10;54.40;;;;;;5069064;28;19960;-60
2021/07/19 09:10:44;;;;;;;;;;;26.10;54.20;;;;;;5087575;28;19911;-60
2021/07/19 09:13:17;;;;;;;;;;;26.20;54.20;;;;;;5081234;28;20303;-60
2021/07/19 09:15:43;;;;;;;;;;;26.20;54.10;;;;;;5088224;28;20020;-60
2021/07/19 09:18:09;;;;;;;;;;;26.20;54.10;;;;;;5087029;28;19915;-61
2021/07/19 09:20:36;;;;;;;;;;;26.20;54.10;;;;;;5087451;28;20003;-61
2021/07/19 09:23:01;;;;;;;;;;;26.20;54.10;;;;;;5086226;28;20326;-60
2021/07/19 09:25:30;;;;;;;;;;;26.20;54.00;;;;;;5083768;28;19947;-60
2021/07/19 09:27:58;;;;;;;;;;;26.20;54.00;;;;;;5080416;28;19918;-60
2021/07/19 09:30:26;;;;;;;;;;;26.20;54.30;;;;;;5067772;28;19965;-61
2021/07/19 09:32:56;;;;;;;;;;;26.20;54.40;;;;;;5091879;28;19912;-61
2021/07/19 09:35:22;;;;;;;;;;;26.20;54.40;;;;;;5069164;28;20351;-60
2021/07/19 09:37:47;;;;;;;;;;;26.20;54.20;;;;;;5085722;28;19912;-62
2021/07/19 09:40:13;;;;;;;;;;;26.20;53.90;;;;;;5088426;28;19965;-61
2021/07/19 09:42:44;;;;;;;;;;;26.20;53.90;;;;;;5087504;28;19916;-59
2021/07/19 09:45:21;;;;;;;;;;;26.20;54.00;;;;;;5086819;28;19908;-60
2021/07/19 09:47:47;;;;;;;;;;;26.20;54.10;;;;;;5088335;28;20359;-63
2021/07/19 09:50:14;;;;;;;;;;;26.30;54.20;;;;;;5087579;28;19916;-61
2021/07/19 09:52:40;;;;;;;;;;;26.30;54.20;;;;;;5087913;28;19922;-60
2021/07/19 09:55:06;;;;;;;;;;;26.30;54.20;;;;;;5082910;28;20317;-62
2021/07/19 09:57:31;;;;;;;;;;;26.30;54.70;;;;;;5085426;28;20003;-61
2021/07/19 09:59:58;;;;;;;;;;;26.30;54.30;;;;;;5086110;28;19943;-60
2021/07/19 10:02:40;;;;;;;;;;;26.30;54.30;;;;;;5079542;28;19931;-60
2021/07/19 10:05:07;;;;;;;;;;;26.30;54.20;;;;;;5081157;28;20524;-60
2021/07/19 10:07:33;;;;;;;;;;;26.30;54.20;;;;;;5077433;28;19962;-62
2021/07/19 10:10:05;;;;;;;;;;;26.40;54.30;;;;;;5085056;28;19919;-62
2021/07/19 10:12:31;;;;;;;;;;;26.40;54.30;;;;;;5085197;28;20552;-61
2021/07/19 10:14:57;;;;;;;;;;;26.40;54.20;;;;;;5074848;28;20006;-65
2021/07/19 10:17:24;;;;;;;;;;;26.40;54.20;;;;;;5070085;28;19977;-63
2021/07/19 10:19:50;;;;;;;;;;;26.40;54.10;;;;;;5080711;28;19946;-64
2021/07/19 10:22:16;;;;;;;;;;;26.40;54.20;;;;;;5082903;28;19915;-62
2021/07/19 10:24:42;;;;;;;;;;;26.40;54.10;;;;;;5086727;28;19912;-62
2021/07/19 10:27:27;;;;;;;;;;;26.40;54.10;;;;;;5078169;28;20689;-63
2021/07/19 10:29:53;;;;;;;;;;;26.40;54.10;;;;;;5067545;28;20342;-60
2021/07/19 10:32:22;;;;;;;;;;;26.40;54.10;;;;;;5084550;28;19996;-62
2021/07/19 10:34:49;;;;;;;;;;;26.40;54.10;;;;;;5076549;28;20390;-62
2021/07/19 10:37:22;;;;;;;;;;;26.50;54.20;;;;;;5087483;28;19943;-64
2021/07/19 10:39:51;;;;;;;;;;;26.50;54.20;;;;;;5082493;28;19912;-65
2021/07/19 10:42:17;;;;;;;;;;;26.50;54.10;;;;;;5085334;28;20310;-63
2021/07/19 10:44:43;;;;;;;;;;;26.50;54.10;;;;;;5069702;28;19955;-62
2021/07/19 10:47:12;;;;;;;;;;;26.50;54.10;;;;;;5087642;28;20259;-64
2021/07/19 10:49:43;;;;;;;;;;;26.50;54.10;;;;;;5081031;28;20339;-65
2021/07/19 10:52:10;;;;;;;;;;;26.60;54.10;;;;;;5087391;28;19919;-65
2021/07/19 10:54:45;;;;;;;;;;;26.60;54.10;;;;;;5068973;28;20282;-63
2021/07/19 10:57:10;;;;;;;;;;;26.60;54.10;;;;;;5085237;28;19912;-63
2021/07/19 10:59:39;;;;;;;;;;;26.60;54.00;;;;;;5081106;28;19928;-62
2021/07/19 11:02:04;;;;;;;;;;;26.60;54.10;;;;;;5092034;28;20314;-62
2021/07/19 11:04:30;;;;;;;;;;;26.60;54.20;;;;;;5087654;28;19968;-61
2021/07/19 11:06:57;;;;;;;;;;;26.60;54.10;;;;;;5086463;28;19958;-62
2021/07/19 11:09:32;;;;;;;;;;;26.70;54.70;;;;;;5089879;28;19980;-63
2021/07/19 11:12:05;;;;;;;;;;;26.70;54.10;;;;;;5088445;28;19908;-65
2021/07/19 11:14:40;;;;;;;;;;;26.70;54.20;;;;;;5071451;28;19951;-61
2021/07/19 11:17:08;;;;;;;;;;;26.70;54.20;;;;;;5056264;28;20272;-62
2021/07/19 11:19:39;;;;;;;;;;;26.70;54.20;;;;;;5086905;28;19912;-62
2021/07/19 11:22:12;;;;;;;;;;;26.70;54.20;;;;;;5085422;28;20416;-63
2021/07/19 11:24:38;;;;;;;;;;;26.70;54.30;;;;;;5079581;28;19965;-63
2021/07/19 11:27:04;;;;;;;;;;;26.70;54.20;;;;;;5085283;28;19912;-64
2021/07/19 11:29:30;;;;;;;;;;;26.70;54.30;;;;;;5088105;28;19965;-63
2021/07/19 11:32:13;;;;;;;;;;;26.70;54.20;;;;;;5086169;28;19912;-63
2021/07/19 11:34:39;;;;;;;;;;;26.80;54.40;;;;;;5078161;28;19918;-64
2021/07/19 11:37:05;;;;;;;;;;;26.70;54.40;;;;;;5054200;28;19916;-63
2021/07/19 11:39:40;;;;;;;;;;;26.80;54.50;;;;;;5102528;28;19923;-62
2021/07/19 11:42:06;;;;;;;;;;;26.80;54.50;;;;;;5089621;28;19911;-67
2021/07/19 11:44:32;;;;;;;;;;;26.80;54.30;;;;;;5087429;28;19935;-64
2021/07/19 11:46:58;;;;;;;;;;;26.80;54.20;;;;;;5089221;28;19997;-64
2021/07/19 11:49:24;;;;;;;;;;;26.80;54.30;;;;;;5083845;28;19920;-64
2021/07/19 11:51:50;;;;;;;;;;;26.80;54.40;;;;;;5088975;28;19912;-67
2021/07/19 11:54:16;;;;;;;;;;;26.80;54.40;;;;;;5089877;28;20445;-66
2021/07/19 11:56:46;;;;;;;;;;;26.80;54.20;;;;;;5082435;28;19920;-65
2021/07/19 11:59:11;;;;;;;;;;;26.80;54.40;;;;;;5085496;28;19934;-65
2021/07/19 12:01:37;;;;;;;;;;;26.90;54.40;;;;;;5067992;28;20333;-63
2021/07/19 12:04:04;;;;;;;;;;;26.90;54.40;;;;;;5083337;28;19926;-66
2021/07/19 12:06:30;;;;;;;;;;;26.90;54.40;;;;;;5081982;28;19998;-65
2021/07/19 12:09:02;;;;;;;;;;;26.90;54.50;;;;;;5067114;28;19965;-65
2021/07/19 12:11:29;;;;;;;;;;;26.90;54.50;;;;;;5093556;28;19911;-65
2021/07/19 12:13:58;;;;;;;;;;;26.90;54.30;;;;;;5084039;28;20325;-62
2021/07/19 12:16:31;;;;;;;;;;;27.00;54.50;;;;;;5065897;28;19912;-64
2021/07/19 12:18:56;;;;;;;;;;;27.00;54.70;;;;;;5082703;28;19916;-64
2021/07/19 12:21:23;;;;;;;;;;;27.00;54.60;;;;;;5073749;28;19923;-67
2021/07/19 12:23:50;;;;;;;;;;;27.00;54.90;;;;;;5076907;28;20016;-64
2021/07/19 12:26:39;;;;;;;;;;;27.00;54.40;;;;;;5070663;28;19919;-63
2021/07/19 12:29:25;;;;;;;;;;;27.10;54.40;;;;;;5063873;28;19911;-64
2021/07/19 12:31:55;;;;;;;;;;;27.00;54.40;;;;;;5077322;28;20360;-66
2021/07/19 12:34:37;;;;;;;;;;;27.10;54.40;;;;;;5073014;28;19912;-64
2021/07/19 12:37:06;;;;;;;;;;;27.10;54.40;;;;;;5084532;28;19916;-65
2021/07/19 12:39:31;;;;;;;;;;;27.10;55.10;;;;;;5075852;28;19945;-64
2021/07/19 12:41:57;;;;;;;;;;;27.20;55.30;;;;;;5084260;28;20000;-64
2021/07/19 12:44:24;;;;;;;;;;;27.30;55.10;;;;;;5087013;28;19924;-64
2021/07/19 12:46:52;;;;;;;;;;;27.30;55.00;;;;;;5067609;28;19919;-63
2021/07/19 12:49:30;;;;;;;;;;;27.30;54.90;;;;;;5069004;28;20585;-66
2021/07/19 12:52:16;;;;;;;;;;;27.30;54.60;;;;;;5082029;28;19916;-66
2021/07/19 12:54:52;;;;;;;;;;;27.40;54.50;;;;;;5074961;28;20265;-66
2021/07/19 12:57:18;;;;;;;;;;;27.40;54.60;;;;;;5090511;28;19919;-63
2021/07/19 12:59:46;;;;;;;;;;;27.40;54.50;;;;;;5077766;28;20312;-66
2021/07/19 13:02:15;;;;;;;;;;;27.50;54.60;;;;;;5079518;28;19920;-64
2021/07/19 13:04:40;;;;;;;;;;;27.50;54.70;;;;;;5078089;28;19919;-64
2021/07/19 13:07:06;;;;;;;;;;;27.50;54.60;;;;;;5074977;28;20235;-63
2021/07/19 13:09:32;;;;;;;;;;;27.60;54.60;;;;;;5074852;28;19916;-65
2021/07/19 13:11:59;;;;;;;;;;;27.60;54.50;;;;;;5085006;28;19911;-63
2021/07/19 13:14:25;;;;;;;;;;;27.60;54.50;;;;;;5089392;28;20010;-62
2021/07/19 13:16:58;;;;;;;;;;;27.60;54.50;;;;;;5075033;28;20006;-65
2021/07/19 13:19:34;;;;;;;;;;;27.60;54.50;;;;;;5079941;28;19912;-65
2021/07/19 13:22:01;;;;;;;;;;;27.70;54.50;;;;;;5079816;28;20342;-66
2021/07/19 13:24:34;;;;;;;;;;;27.70;54.40;;;;;;5073455;28;20358;-65
2021/07/19 13:27:03;;;;;;;;;;;27.70;54.40;;;;;;5065800;28;20438;-65
2021/07/19 13:29:29;;;;;;;;;;;27.70;54.40;;;;;;5089129;28;19916;-65
2021/07/19 13:32:15;;;;;;;;;;;27.70;54.40;;;;;;5045252;28;19939;-65
2021/07/19 13:34:40;;;;;;;;;;;27.80;54.40;;;;;;5040199;28;19916;-65
2021/07/19 13:37:06;;;;;;;;;;;27.80;54.80;;;;;;5049065;28;19920;-64
2021/07/19 13:39:32;;;;;;;;;;;27.80;54.20;;;;;;5063198;28;20417;-65
2021/07/19 13:42:05;;;;;;;;;;;27.80;54.20;;;;;;5062701;28;19920;-64
2021/07/19 13:44:34;;;;;;;;;;;27.90;54.30;;;;;;5063231;28;19912;-66
2021/07/19 13:47:00;;;;;;;;;;;27.90;54.40;;;;;;5038865;28;19912;-65
2021/07/19 13:49:27;;;;;;;;;;;27.90;54.40;;;;;;5061420;28;19935;-65
2021/07/19 13:51:52;;;;;;;;;;;27.90;54.30;;;;;;5077877;28;20453;-64
2021/07/19 13:54:18;;;;;;;;;;;27.90;54.30;;;;;;5062077;28;20006;-67
2021/07/19 13:56:43;;;;;;;;;;;27.90;54.40;;;;;;5063904;28;19909;-66
2021/07/19 13:59:09;;;;;;;;;;;28.00;54.40;;;;;;5054605;28;19913;-65
2021/07/19 14:01:35;;;;;;;;;;;28.00;54.40;;;;;;5057957;28;19916;-63
2021/07/19 14:04:02;;;;;;;;;;;28.00;54.30;;;;;;5064943;28;20270;-65
2021/07/19 14:06:27;;;;;;;;;;;28.00;54.30;;;;;;5051070;28;19917;-67
2021/07/19 14:08:53;;;;;;;;;;;28.00;54.40;;;;;;5047233;28;20390;-63
2021/07/19 14:11:18;;;;;;;;;;;28.00;54.20;;;;;;5064729;28;19923;-64
2021/07/19 14:13:44;;;;;;;;;;;28.00;54.20;;;;;;5063480;28;19908;-65
2021/07/19 14:16:09;;;;;;;;;;;28.10;54.30;;;;;;5061686;28;19919;-64